createdAt,value
2022-12-07T00:01:49.052Z,14.97
2022-12-07T00:04:18.920Z,13.20
2022-12-07T00:06:51.962Z,13.93
2022-12-07T00:09:24.151Z,14.73
2022-12-07T00:11:53.071Z,13.33
2022-12-07T00:14:22.485Z,13.97
2022-12-07T00:16:52.412Z,12.13
2022-12-07T00:19:20.862Z,11.87
2022-12-07T00:21:50.530Z,12.30
2022-12-07T00:24:20.057Z,10.37
2022-12-07T00:26:48.638Z,12.30
2022-12-07T00:29:18.891Z,11.13
2022-12-07T00:31:46.923Z,10.47
2022-12-07T00:34:16.816Z,10.60
2022-12-07T00:36:44.776Z,10.47
2022-12-07T00:39:14.396Z,10.17
2022-12-07T00:41:42.636Z,10.20
2022-12-07T00:44:11.610Z,10.13
2022-12-07T00:46:39.539Z,9.53
2022-12-07T00:49:09.013Z,11.00
2022-12-07T00:51:39.894Z,9.20
2022-12-07T00:54:08.175Z,8.70
2022-12-07T00:56:39.043Z,9.73
2022-12-07T00:59:07.016Z,9.00
2022-12-07T01:01:40.669Z,8.20
2022-12-07T01:04:09.005Z,9.57
2022-12-07T01:06:37.438Z,9.03
2022-12-07T01:09:07.050Z,10.40
2022-12-07T01:11:35.734Z,9.93
2022-12-07T01:14:05.912Z,8.53
2022-12-07T01:16:35.022Z,11.70
2022-12-07T01:19:05.474Z,9.53
2022-12-07T01:21:36.821Z,11.20
2022-12-07T01:24:07.051Z,11.07
2022-12-07T01:26:35.327Z,8.97
2022-12-07T01:29:07.161Z,8.80
2022-12-07T01:31:35.555Z,8.47
2022-12-07T01:34:04.332Z,9.33
2022-12-07T01:36:34.219Z,10.93
2022-12-07T01:39:08.974Z,8.93
2022-12-07T01:41:40.420Z,9.60
2022-12-07T01:44:20.204Z,8.37
2022-12-07T01:46:52.972Z,7.30
2022-12-07T01:49:25.734Z,7.33
2022-12-07T01:51:59.636Z,7.07
2022-12-07T01:54:28.019Z,6.97
2022-12-07T01:56:58.649Z,6.67
2022-12-07T01:59:28.191Z,8.03
2022-12-07T02:01:57.412Z,6.97
2022-12-07T02:04:26.522Z,7.63
2022-12-07T02:06:57.339Z,7.97
2022-12-07T02:09:25.871Z,6.60
2022-12-07T02:11:54.429Z,7.67
2022-12-07T02:14:23.334Z,7.17
2022-12-07T02:17:08.384Z,6.00
2022-12-07T02:20:16.112Z,6.00
2022-12-07T02:23:23.577Z,5.37
2022-12-07T02:26:06.460Z,6.00
2022-12-07T02:28:37.269Z,5.53
2022-12-07T02:31:10.007Z,6.60
2022-12-07T02:33:44.260Z,5.80
2022-12-07T02:36:15.087Z,6.20
2022-12-07T02:38:51.228Z,8.33
2022-12-07T02:41:25.462Z,6.63
2022-12-07T02:43:55.331Z,6.33
2022-12-07T02:46:28.124Z,7.20
2022-12-07T02:49:00.292Z,7.00
2022-12-07T02:51:32.121Z,8.77
2022-12-07T02:54:00.507Z,8.00
2022-12-07T02:56:36.505Z,7.90
2022-12-07T02:59:11.999Z,8.87
2022-12-07T03:01:52.480Z,9.30
2022-12-07T03:04:34.521Z,8.47
2022-12-07T03:07:07.956Z,8.13
2022-12-07T03:09:43.155Z,9.47
2022-12-07T03:12:16.517Z,7.30
2022-12-07T03:14:50.763Z,7.83
2022-12-07T03:17:23.178Z,7.97
2022-12-07T03:19:54.133Z,7.90
2022-12-07T03:22:25.729Z,9.37
2022-12-07T03:24:57.667Z,11.60
2022-12-07T03:27:27.994Z,9.10
2022-12-07T03:30:02.789Z,8.83
2022-12-07T03:32:36.657Z,9.17
2022-12-07T03:35:08.841Z,9.13
2022-12-07T03:37:41.485Z,8.37
2022-12-07T03:40:15.438Z,9.97
2022-12-07T03:42:43.788Z,9.50
2022-12-07T03:45:12.491Z,9.70
2022-12-07T03:47:47.522Z,8.97
2022-12-07T03:50:20.928Z,8.63
2022-12-07T03:52:52.654Z,9.80
2022-12-07T03:55:23.738Z,9.47
2022-12-07T03:57:54.837Z,8.93
2022-12-07T04:00:24.413Z,10.30
2022-12-07T04:02:55.302Z,12.50
2022-12-07T04:05:25.181Z,11.37
2022-12-07T04:07:54.849Z,11.07
2022-12-07T04:10:23.151Z,13.37
2022-12-07T04:12:51.212Z,13.50
2022-12-07T04:15:21.674Z,15.97
2022-12-07T04:17:50.819Z,14.20
2022-12-07T04:20:22.878Z,20.07
2022-12-07T04:22:52.434Z,15.37
2022-12-07T04:25:20.936Z,14.63
2022-12-07T04:27:48.885Z,16.50
2022-12-07T04:30:17.022Z,16.63
2022-12-07T04:32:46.216Z,18.00
2022-12-07T04:35:15.198Z,18.27
2022-12-07T04:37:49.287Z,18.53
2022-12-07T04:40:20.552Z,17.57
2022-12-07T04:42:49.046Z,18.03
2022-12-07T04:45:17.574Z,18.60
2022-12-07T04:47:46.212Z,21.17
2022-12-07T04:50:15.431Z,20.37
2022-12-07T04:52:44.786Z,23.70
2022-12-07T04:55:13.378Z,23.67
2022-12-07T04:57:44.391Z,25.43
2022-12-07T05:00:15.702Z,26.13
2022-12-07T05:02:43.757Z,30.13
2022-12-07T05:05:11.791Z,26.53
2022-12-07T05:07:41.637Z,33.93
2022-12-07T05:10:16.836Z,28.73
2022-12-07T05:12:46.338Z,26.30
2022-12-07T05:15:17.190Z,25.73
2022-12-07T05:17:46.456Z,31.27
2022-12-07T05:20:16.473Z,29.33
2022-12-07T05:22:45.531Z,32.70
2022-12-07T05:25:16.774Z,33.23
2022-12-07T05:27:46.196Z,32.10
2022-12-07T05:30:18.208Z,34.40
2022-12-07T05:32:46.479Z,33.03
2022-12-07T05:35:15.164Z,32.90
2022-12-07T05:37:43.545Z,33.20
2022-12-07T05:40:12.592Z,35.70
2022-12-07T05:42:41.420Z,35.47
2022-12-07T05:45:11.116Z,37.60
2022-12-07T05:47:40.787Z,34.53
2022-12-07T05:50:10.000Z,40.77
2022-12-07T05:52:38.036Z,36.90
2022-12-07T05:55:08.053Z,36.43
2022-12-07T05:57:38.590Z,39.00
2022-12-07T06:00:08.872Z,43.83
2022-12-07T06:02:41.982Z,38.20
2022-12-07T06:05:13.976Z,36.77
2022-12-07T06:07:43.016Z,41.73
2022-12-07T06:10:12.883Z,43.67
2022-12-07T06:12:40.472Z,43.17
2022-12-07T06:15:11.026Z,47.83
2022-12-07T06:17:41.661Z,47.20
2022-12-07T06:20:11.447Z,42.07
2022-12-07T06:22:39.544Z,45.73
2022-12-07T06:25:08.848Z,40.87
2022-12-07T06:27:37.058Z,41.50
2022-12-07T06:30:09.476Z,40.83
2022-12-07T06:32:39.756Z,39.07
2022-12-07T06:35:11.355Z,36.00
2022-12-07T06:37:39.271Z,34.53
2022-12-07T06:40:09.851Z,34.40
2022-12-07T06:42:37.851Z,29.67
2022-12-07T06:45:07.601Z,36.00
2022-12-07T06:47:46.141Z,41.00
2022-12-07T06:50:16.561Z,38.50
2022-12-07T06:52:44.818Z,32.97
2022-12-07T06:55:16.148Z,42.33
2022-12-07T06:57:44.510Z,37.20
2022-12-07T07:00:20.003Z,35.60
2022-12-07T07:02:50.113Z,34.13
2022-12-07T07:05:22.316Z,39.10
2022-12-07T07:08:20.998Z,39.70
2022-12-07T07:10:40.707Z,38.27
2022-12-07T07:13:10.982Z,41.93
2022-12-07T07:15:41.704Z,45.30
2022-12-07T07:18:10.694Z,39.50
2022-12-07T07:20:41.018Z,49.00
2022-12-07T07:23:12.373Z,56.93
2022-12-07T07:25:43.023Z,39.50
2022-12-07T07:28:12.859Z,38.03
2022-12-07T07:30:40.697Z,40.47
2022-12-07T07:33:08.936Z,37.60
2022-12-07T07:35:37.465Z,35.53
2022-12-07T07:38:09.529Z,39.10
2022-12-07T07:40:41.293Z,35.23
2022-12-07T07:43:09.532Z,30.63
2022-12-07T07:45:37.754Z,29.37
2022-12-07T07:48:07.884Z,33.60
2022-12-07T07:50:37.591Z,31.00
2022-12-07T07:53:12.331Z,29.73
2022-12-07T07:55:40.440Z,32.03
2022-12-07T07:58:08.687Z,28.57
2022-12-07T08:00:38.443Z,23.10
2022-12-07T08:03:08.345Z,21.90
2022-12-07T08:05:39.052Z,20.83
2022-12-07T08:08:11.319Z,19.83
2022-12-07T08:10:42.071Z,22.97
2022-12-07T08:13:14.815Z,21.23
2022-12-07T08:15:43.970Z,19.23
2022-12-07T08:18:13.730Z,22.03
2022-12-07T08:20:42.466Z,19.23
2022-12-07T08:23:13.923Z,20.97
2022-12-07T08:25:44.462Z,14.40
2022-12-07T08:28:12.692Z,15.57
2022-12-07T08:30:41.023Z,13.33
2022-12-07T08:33:09.179Z,14.37
2022-12-07T08:35:37.152Z,15.63
2022-12-07T08:38:05.680Z,14.07
2022-12-07T08:40:36.300Z,14.33
2022-12-07T08:43:04.852Z,14.63
2022-12-07T08:45:36.710Z,14.60
2022-12-07T08:48:06.543Z,10.47
2022-12-07T08:50:35.896Z,13.77
2022-12-07T08:53:05.505Z,8.33
2022-12-07T08:55:35.823Z,6.70
2022-12-07T08:58:05.409Z,7.67
2022-12-07T09:00:34.054Z,7.37
2022-12-07T09:03:03.645Z,8.53
2022-12-07T09:05:32.993Z,6.90
2022-12-07T09:08:03.355Z,6.93
2022-12-07T09:11:28.771Z,5.17
2022-12-07T09:15:11.020Z,4.73
2022-12-07T09:18:52.908Z,4.70
2022-12-07T09:22:35.107Z,3.30
2022-12-07T09:26:18.415Z,3.17
2022-12-07T09:30:00.260Z,5.93
2022-12-07T09:33:42.948Z,3.60
2022-12-07T09:37:24.899Z,2.20
2022-12-07T09:41:06.892Z,3.30
2022-12-07T09:44:48.521Z,3.03
2022-12-07T09:48:32.195Z,5.10
2022-12-07T09:52:15.420Z,3.43
2022-12-07T09:55:57.839Z,3.20
2022-12-07T09:59:40.333Z,3.60
2022-12-07T10:03:23.365Z,3.30
2022-12-07T10:07:04.702Z,2.73
2022-12-07T10:10:47.349Z,4.17
2022-12-07T10:14:58.802Z,3.17
2022-12-07T10:18:31.858Z,5.97
2022-12-07T10:22:14.292Z,2.70
2022-12-07T10:25:59.388Z,2.87
2022-12-07T10:29:42.507Z,3.67
2022-12-07T10:33:24.396Z,2.53
2022-12-07T10:37:07.455Z,3.50
2022-12-07T10:40:49.293Z,3.93
2022-12-07T10:44:30.567Z,3.30
2022-12-07T10:48:12.143Z,4.60
2022-12-07T10:51:53.765Z,4.07
2022-12-07T10:55:35.764Z,2.97
2022-12-07T10:59:17.884Z,4.00
2022-12-07T11:02:59.862Z,6.60
2022-12-07T11:06:41.790Z,4.03
2022-12-07T11:13:02.016Z,7.97
2022-12-07T11:15:36.074Z,8.33
2022-12-07T11:18:09.081Z,8.10
2022-12-07T11:20:44.112Z,5.33
2022-12-07T11:23:22.981Z,4.50
2022-12-07T11:25:57.154Z,4.20
2022-12-07T11:28:39.982Z,5.67
2022-12-07T11:31:15.411Z,4.87
2022-12-07T11:33:48.193Z,11.03
2022-12-07T11:36:33.980Z,5.63
2022-12-07T11:39:05.228Z,9.67
2022-12-07T11:41:37.797Z,6.77
2022-12-07T11:44:09.560Z,7.43
2022-12-07T11:46:47.334Z,3.87
2022-12-07T11:49:25.108Z,7.57
2022-12-07T11:51:56.038Z,7.27
2022-12-07T11:54:27.924Z,6.13
2022-12-07T11:56:58.850Z,8.67
2022-12-07T11:59:32.396Z,6.40
2022-12-07T12:02:05.359Z,9.03
2022-12-07T12:04:46.119Z,4.70
2022-12-07T12:10:15.378Z,5.30
2022-12-07T12:16:36.613Z,6.10
2022-12-07T12:19:20.606Z,7.80
2022-12-07T12:21:58.683Z,5.50
2022-12-07T12:24:37.621Z,7.10
2022-12-07T12:27:11.396Z,7.27
2022-12-07T12:29:42.424Z,6.40
2022-12-07T12:32:19.276Z,4.50
2022-12-07T12:35:13.308Z,7.43
2022-12-07T12:37:54.209Z,5.50
2022-12-07T12:40:52.279Z,8.27
2022-12-07T12:43:59.597Z,4.40
2022-12-07T12:47:03.237Z,5.77
2022-12-07T12:49:49.882Z,12.00
2022-12-07T12:52:56.265Z,7.50
2022-12-07T12:56:03.549Z,6.90
2022-12-07T12:58:45.822Z,7.63
2022-12-07T13:01:49.399Z,8.13
2022-12-07T13:05:01.705Z,7.13
2022-12-07T13:07:55.933Z,5.87
2022-12-07T13:10:43.661Z,4.80
2022-12-07T13:13:35.055Z,8.13
2022-12-07T13:16:42.001Z,5.83
2022-12-07T13:19:45.318Z,7.87
2022-12-07T13:22:54.392Z,8.87
2022-12-07T13:25:34.312Z,5.93
2022-12-07T13:28:07.950Z,8.93
2022-12-07T13:30:47.720Z,7.13
2022-12-07T13:33:17.888Z,6.10
2022-12-07T13:35:49.775Z,8.40
2022-12-07T13:38:25.352Z,9.13
2022-12-07T13:41:16.251Z,9.27
2022-12-07T13:43:51.408Z,5.97
2022-12-07T13:46:28.058Z,5.63
2022-12-07T13:49:00.659Z,5.20
2022-12-07T13:51:38.454Z,11.63
2022-12-07T13:54:18.806Z,6.43
2022-12-07T13:56:50.514Z,5.57
2022-12-07T13:59:20.673Z,8.33
2022-12-07T14:01:55.263Z,6.27
2022-12-07T14:04:38.269Z,9.50
2022-12-07T14:07:27.688Z,3.43
2022-12-07T14:09:59.061Z,5.90
2022-12-07T14:12:31.507Z,5.37
2022-12-07T14:15:01.901Z,9.37
2022-12-07T14:17:35.704Z,7.20
2022-12-07T14:20:26.941Z,9.27
2022-12-07T14:23:02.766Z,9.70
2022-12-07T14:25:34.820Z,6.90
2022-12-07T14:28:11.338Z,9.53
2022-12-07T14:30:50.351Z,4.40
2022-12-07T14:33:18.953Z,7.47
2022-12-07T14:35:51.310Z,4.47
2022-12-07T14:38:19.743Z,7.67
2022-12-07T14:40:48.341Z,5.33
2022-12-07T14:43:21.831Z,8.37
2022-12-07T14:45:52.431Z,9.27
2022-12-07T14:53:59.984Z,8.47
2022-12-07T14:56:28.955Z,6.63
2022-12-07T14:59:00.442Z,7.83
2022-12-07T15:01:30.086Z,8.87
2022-12-07T15:03:58.560Z,6.80
2022-12-07T15:06:27.356Z,7.53
2022-12-07T15:08:56.143Z,5.00
2022-12-07T15:11:24.450Z,5.37
2022-12-07T15:14:12.236Z,7.17
2022-12-07T15:17:07.252Z,6.77
2022-12-07T15:19:32.477Z,7.67
2022-12-07T15:22:02.042Z,6.77
2022-12-07T15:24:31.600Z,9.23
2022-12-07T15:26:59.946Z,9.53
2022-12-07T15:29:32.616Z,7.53
2022-12-07T15:32:02.408Z,6.67
2022-12-07T15:34:39.470Z,6.40
2022-12-07T15:37:09.411Z,9.27
2022-12-07T15:39:40.170Z,10.13
2022-12-07T15:42:08.289Z,5.13
2022-12-07T15:44:54.478Z,8.97
2022-12-07T15:47:26.879Z,7.77
2022-12-07T15:49:58.538Z,6.23
2022-12-07T15:52:26.923Z,8.37
2022-12-07T15:54:56.686Z,8.17
2022-12-07T15:57:32.016Z,6.67
2022-12-07T16:00:01.247Z,10.77
2022-12-07T16:02:40.059Z,7.33
2022-12-07T16:05:11.649Z,5.60
2022-12-07T16:07:42.396Z,8.93
2022-12-07T16:10:14.044Z,5.57
2022-12-07T16:12:43.988Z,10.27
2022-12-07T16:15:12.966Z,7.40
2022-12-07T16:17:44.368Z,7.03
2022-12-07T16:20:14.349Z,6.00
2022-12-07T16:22:51.353Z,5.87
2022-12-07T16:25:20.616Z,6.47
2022-12-07T16:27:53.062Z,7.03
2022-12-07T16:30:29.470Z,7.83
2022-12-07T16:33:02.464Z,6.20
2022-12-07T16:35:30.960Z,14.37
2022-12-07T16:37:58.996Z,5.87
2022-12-07T16:40:27.175Z,6.60
2022-12-07T16:42:56.632Z,6.90
2022-12-07T16:45:25.057Z,9.30
2022-12-07T16:47:56.777Z,6.60
2022-12-07T16:50:29.445Z,5.97
2022-12-07T16:53:00.040Z,11.30
2022-12-07T16:55:28.225Z,4.63
2022-12-07T16:57:57.137Z,11.97
2022-12-07T17:00:26.114Z,8.77
2022-12-07T17:02:56.173Z,8.80
2022-12-07T17:05:32.036Z,8.63
2022-12-07T17:08:07.457Z,6.50
2022-12-07T17:10:37.477Z,7.37
2022-12-07T17:13:26.817Z,6.73
2022-12-07T17:15:59.267Z,8.57
2022-12-07T17:18:29.610Z,5.77
2022-12-07T17:21:05.683Z,8.53
2022-12-07T17:23:37.351Z,8.23
2022-12-07T17:26:10.088Z,6.33
2022-12-07T17:28:39.490Z,6.30
2022-12-07T17:31:09.322Z,6.03
2022-12-07T17:33:38.634Z,9.40
2022-12-07T17:36:13.745Z,10.40
2022-12-07T17:38:42.321Z,6.63
2022-12-07T17:41:12.613Z,6.97
2022-12-07T17:43:41.458Z,7.80
2022-12-07T17:46:14.256Z,8.97
2022-12-07T17:48:42.842Z,7.03
2022-12-07T17:51:33.065Z,6.93
2022-12-07T17:54:02.539Z,6.07
2022-12-07T17:56:33.716Z,9.17
2022-12-07T17:59:05.442Z,5.83
2022-12-07T18:01:43.767Z,9.77
2022-12-07T18:04:12.442Z,5.43
2022-12-07T18:06:43.466Z,7.40
2022-12-07T18:09:14.655Z,7.17
2022-12-07T18:11:43.083Z,5.73
2022-12-07T18:14:13.166Z,6.23
2022-12-07T18:16:41.576Z,10.23
2022-12-07T18:19:17.235Z,10.63
2022-12-07T18:21:47.555Z,8.00
2022-12-07T18:24:17.843Z,5.50
2022-12-07T18:26:47.935Z,9.27
2022-12-07T18:29:20.539Z,7.40
2022-12-07T18:31:49.279Z,6.47
2022-12-07T18:34:19.624Z,7.53
2022-12-07T18:36:51.413Z,6.83
2022-12-07T18:39:20.669Z,9.93
2022-12-07T18:41:49.588Z,8.40
2022-12-07T18:44:20.386Z,6.83
2022-12-07T18:47:04.719Z,6.90
2022-12-07T18:49:33.157Z,8.67
2022-12-07T18:52:05.717Z,7.73
2022-12-07T18:54:33.676Z,8.87
2022-12-07T18:57:01.879Z,11.77
2022-12-07T18:59:50.180Z,7.30
2022-12-07T19:02:19.162Z,4.97
2022-12-07T19:04:47.648Z,7.07
2022-12-07T19:07:18.840Z,5.07
2022-12-07T19:09:47.391Z,5.70
2022-12-07T19:12:16.118Z,6.80
2022-12-07T19:14:45.396Z,7.50
2022-12-07T19:17:15.192Z,9.50
2022-12-07T19:19:45.387Z,9.47
2022-12-07T19:22:17.447Z,9.53
2022-12-07T19:24:48.278Z,5.17
2022-12-07T19:27:17.552Z,6.73
2022-12-07T19:29:47.772Z,6.83
2022-12-07T19:32:19.483Z,6.83
2022-12-07T19:34:48.503Z,10.40
2022-12-07T19:37:19.093Z,8.97
2022-12-07T19:39:48.128Z,9.80
2022-12-07T19:42:17.243Z,8.47
2022-12-07T19:44:45.690Z,9.27
2022-12-07T19:47:17.318Z,7.03
2022-12-07T19:49:48.187Z,9.67
2022-12-07T19:52:18.068Z,8.53
2022-12-07T19:54:46.318Z,7.67
2022-12-07T19:57:17.785Z,8.10
2022-12-07T19:59:47.689Z,7.70
2022-12-07T20:02:17.211Z,9.07
2022-12-07T20:04:45.843Z,9.77
2022-12-07T20:07:14.145Z,10.80
2022-12-07T20:09:44.940Z,13.10
2022-12-07T20:12:30.893Z,9.33
2022-12-07T20:15:00.827Z,7.67
2022-12-07T20:17:29.279Z,9.03
2022-12-07T20:19:58.251Z,9.90
2022-12-07T20:22:27.860Z,8.63
2022-12-07T20:24:57.911Z,8.97
2022-12-07T20:27:26.059Z,9.33
2022-12-07T20:29:54.223Z,12.93
2022-12-07T20:32:22.543Z,9.90
2022-12-07T20:34:52.036Z,8.97
2022-12-07T20:37:19.988Z,6.60
2022-12-07T20:39:51.726Z,8.27
2022-12-07T20:42:39.180Z,40.20
2022-12-07T20:45:10.749Z,8.57
2022-12-07T20:47:39.300Z,6.80
2022-12-07T20:50:10.965Z,8.73
2022-12-07T20:52:41.037Z,8.33
2022-12-07T20:55:09.519Z,14.07
2022-12-07T20:57:39.208Z,7.33
2022-12-07T21:00:08.924Z,8.30
2022-12-07T21:02:39.928Z,11.23
2022-12-07T21:05:08.201Z,13.00
2022-12-07T21:07:37.687Z,8.53
2022-12-07T21:10:07.147Z,10.00
2022-12-07T21:12:35.895Z,11.73
2022-12-07T21:15:06.806Z,11.57
2022-12-07T21:17:37.480Z,8.53
2022-12-07T21:20:08.807Z,7.70
2022-12-07T21:22:37.915Z,7.80
2022-12-07T21:25:07.183Z,11.10
2022-12-07T21:27:35.890Z,9.30
2022-12-07T21:30:14.097Z,14.40
2022-12-07T21:32:42.589Z,9.50
2022-12-07T21:35:12.326Z,11.37
2022-12-07T21:37:41.996Z,9.47
2022-12-07T21:40:16.661Z,7.53
2022-12-07T21:42:47.047Z,7.53
2022-12-07T21:45:16.899Z,12.93
2022-12-07T21:47:45.159Z,14.23
2022-12-07T21:50:13.542Z,10.40
2022-12-07T21:52:46.627Z,10.97
2022-12-07T21:55:15.198Z,8.93
2022-12-07T21:57:43.295Z,37.40
2022-12-07T22:00:15.680Z,11.03
2022-12-07T22:02:49.103Z,12.00
2022-12-07T22:05:18.031Z,12.63
2022-12-07T22:07:47.939Z,10.33
2022-12-07T22:10:28.064Z,9.17
2022-12-07T22:12:58.012Z,11.90
2022-12-07T22:15:26.005Z,11.73
2022-12-07T22:17:56.317Z,11.07
2022-12-07T22:20:27.147Z,13.20
2022-12-07T22:22:55.493Z,11.90
2022-12-07T22:25:26.758Z,12.40
2022-12-07T22:27:55.280Z,142.17
2022-12-07T22:30:23.723Z,80.20
2022-12-07T22:32:54.988Z,18.47
2022-12-07T22:35:25.598Z,17.63
2022-12-07T22:37:55.626Z,9.97
2022-12-07T22:40:23.586Z,11.33
2022-12-07T22:42:54.326Z,8.70
2022-12-07T22:45:29.210Z,10.30
2022-12-07T22:47:58.457Z,11.57
2022-12-07T22:50:32.081Z,14.60
2022-12-07T22:53:00.992Z,10.10
2022-12-07T22:55:32.254Z,11.73
2022-12-07T22:58:13.840Z,15.97
2022-12-07T23:00:56.535Z,10.87
2022-12-07T23:03:24.716Z,13.97
2022-12-07T23:05:57.063Z,18.47
2022-12-07T23:08:25.650Z,10.23
2022-12-07T23:10:55.150Z,10.57
2022-12-07T23:13:36.802Z,12.53
2022-12-07T23:16:12.269Z,10.93
2022-12-07T23:18:43.034Z,10.90
2022-12-07T23:21:12.807Z,10.53
2022-12-07T23:23:41.011Z,13.77
2022-12-07T23:26:11.928Z,12.67
2022-12-07T23:28:40.538Z,13.77
2022-12-07T23:31:12.256Z,9.07
2022-12-07T23:33:41.761Z,13.13
2022-12-07T23:36:13.731Z,16.53
2022-12-07T23:38:44.721Z,9.03
2022-12-07T23:41:18.097Z,12.73
2022-12-07T23:43:46.845Z,9.80
2022-12-07T23:46:18.343Z,11.20
2022-12-07T23:48:53.759Z,13.90
2022-12-07T23:51:26.767Z,13.70
2022-12-07T23:53:57.473Z,12.13
2022-12-07T23:56:26.990Z,9.97
2022-12-07T23:58:57.097Z,10.77
